Time;durP1;ratioP1;P1;durP2;ratioP2;P2;SDS_P1;SDS_P2;PMS_P1;PMS_P2;Temp;Humidity;BMP_temperature;BMP_pressure;BME280_temperature;BME280_humidity;BME280_pressure;Samples;Min_cycle;Max_cycle;Signal;HPM_P1;HPM_P2
2023/05/12 00:00:58;;;;;;;48.30;24.27;;;10.10;82.20;;;;;;4921785;29;20062;-96
2023/05/12 00:04:05;;;;;;;;;;;;;;;;;;;;;
2023/05/12 00:07:02;;;;;;;;;;;;;;;;;;;;;
2023/05/12 00:10:20;;;;;;;54.83;24.10;;;10.10;82.20;;;;;;4960011;28;20054;-95
2023/05/12 00:16:36;;;;;;;56.13;23.43;;;10.10;82.40;;;;;;4961080;28;20102;-96
2023/05/12 00:19:47;;;;;;;;;;;;;;;;;;;;;
2023/05/12 00:22:31;;;;;;;55.87;24.37;;;10.10;82.30;;;;;;4959636;28;20053;-94
2023/05/12 00:33:15;;;;;;;50.63;25.77;;;10.10;82.50;;;;;;5004304;28;20670;-96
2023/05/12 00:39:27;;;;;;;62.00;27.00;;;10.10;82.50;;;;;;4843446;29;20141;-94
2023/05/12 00:42:06;;;;;;;70.67;29.27;;;10.20;82.60;;;;;;4796774;29;20130;-94
2023/05/12 00:48:45;;;;;;;63.63;27.57;;;10.20;82.50;;;;;;4767276;29;20189;-95
2023/05/12 00:59:30;;;;;;;;;;;;;;;;;;;;;
2023/05/12 01:12:49;;;;;;;78.90;34.70;;;10.20;82.60;;;;;;4028684;27;30203598;-95
2023/05/12 01:23:49;;;;;;;;;;;;;;;;;;;;;
2023/05/12 01:30:42;;;;;;;;;;;;;;;;;;;;;
2023/05/12 01:33:38;;;;;;;73.25;32.40;;;10.40;82.80;;;;;;4927269;28;20044;-96
2023/05/12 01:39:55;;;;;;;71.70;32.70;;;10.40;82.70;;;;;;4947691;28;20479;-94
2023/05/12 01:47:08;;;;;;;;;;;;;;;;;;;;;
2023/05/12 02:01:43;;;;;;;74.77;36.20;;;10.60;82.70;;;;;;4933485;28;20152;-94
2023/05/12 02:08:40;;;;;;;75.10;36.47;;;10.60;82.80;;;;;;4903900;29;20051;-95
2023/05/12 02:15:13;;;;;;;82.47;37.33;;;10.60;82.70;;;;;;4867469;29;20072;-94
2023/05/12 02:25:07;;;;;;;83.83;37.57;;;10.70;82.60;;;;;;4756882;30;20049;-94
2023/05/12 02:28:10;;;;;;;86.57;38.70;;;10.60;82.60;;;;;;4794077;29;20065;-95
2023/05/12 02:31:16;;;;;;;78.67;35.53;;;10.70;82.70;;;;;;4807583;29;20121;-95
2023/05/12 02:33:42;;;;;;;83.27;37.40;;;10.70;82.60;;;;;;4864341;29;20057;-95
2023/05/12 02:37:13;;;;;;;;;;;;;;;;;;;;;
2023/05/12 02:40:11;;;;;;;84.70;37.20;;;10.70;82.60;;;;;;4758496;30;20152;-93
2023/05/12 02:49:35;;;;;;;79.13;34.90;;;10.60;82.70;;;;;;4890943;29;20047;-94
2023/05/12 02:53:41;;;;;;;83.67;36.80;;;10.60;82.60;;;;;;4899291;29;20048;-95
2023/05/12 02:56:55;;;;;;;85.15;37.03;;;10.60;82.60;;;;;;4848910;29;20042;-96
2023/05/12 03:00:43;;;;;;;79.13;37.17;;;10.60;82.70;;;;;;4845042;29;20053;-93
2023/05/12 03:07:54;;;;;;;84.10;36.53;;;10.60;82.70;;;;;;4799732;29;20053;-95
2023/05/12 03:46:01;;;;;;;;;;;;;;;;;;;;;
2023/05/12 04:52:24;;;;;;;;;;;;;;;;;;;;;
2023/05/12 05:05:18;;;;;;;104.97;42.30;;;11.00;83.00;;;;;;5833445;24;20040;-94
2023/05/12 05:16:32;;;;;;;;;;;;;;;;;;;;;
2023/05/12 05:48:41;;;;;;;;;;;;;;;;;;;;;
2023/05/12 05:52:14;;;;;;;97.60;42.67;;;11.50;83.20;;;;;;6008860;23;20248;-95
2023/05/12 05:58:54;;;;;;;79.47;32.63;;;11.50;83.20;;;;;;6007474;23;20023;-94
2023/05/12 06:02:22;;;;;;;;;;;;;;;;;;;;;
2023/05/12 06:14:18;;;;;;;108.88;44.30;;;11.70;83.10;;;;;;5888892;24;20029;-94
2023/05/12 06:17:26;;;;;;;;;;;;;;;;;;;;;
2023/05/12 06:30:55;;;;;;;94.18;43.53;;;11.70;83.20;;;;;;6015684;21;7870225;-94
2023/05/12 06:45:42;;;;;;;93.38;46.20;;;12.20;83.40;;;;;;6011356;23;20051;-95
2023/05/12 06:48:11;;;;;;;92.18;47.65;;;12.30;83.50;;;;;;5918173;23;20542;-94
2023/05/12 06:50:52;;;;;;;82.93;46.42;;;12.30;83.30;;;;;;5957586;23;20107;-94
2023/05/12 07:00:13;;;;;;;94.93;49.50;;;12.50;83.40;;;;;;5963247;23;20028;-93
2023/05/12 07:02:41;;;;;;;93.18;49.90;;;12.70;83.40;;;;;;6031412;23;20018;-92
2023/05/12 07:05:33;;;;;;;89.20;49.08;;;12.80;83.40;;;;;;6038082;23;20117;-92
2023/05/12 07:07:59;;;;;;;;;;;12.90;83.30;;;;;;6073329;23;20021;-92
2023/05/12 07:11:11;;;;;;;88.70;49.03;;;12.90;83.30;;;;;;6118923;23;19926;-93
2023/05/12 07:13:49;;;;;;;81.25;48.05;;;13.00;83.30;;;;;;6139272;23;20029;-93
2023/05/12 07:16:41;;;;;;;85.70;50.35;;;13.10;83.20;;;;;;6137788;23;20164;-93
2023/05/12 07:41:54;;;;;;;;;;;;;;;;;;;;;
2023/05/12 07:48:41;;;;;;;;;;;;;;;;;;;;;
2023/05/12 07:55:39;;;;;;;;;;;;;;;;;;;;;
2023/05/12 07:58:46;;;;;;;;;;;;;;;;;;;;;
2023/05/12 08:09:18;;;;;;;70.28;49.08;;;14.80;82.20;;;;;;5968636;23;20039;-93
2023/05/12 08:20:44;;;;;;;;;;;;;;;;;;;;;
2023/05/12 09:20:35;;;;;;;38.33;30.60;;;16.70;78.80;;;;;;6203715;22;1465655;-93
2023/05/12 10:09:47;;;;;;;20.30;17.30;;;18.00;73.70;;;;;;6168834;22;20025;-91
2023/05/12 10:12:16;;;;;;;19.05;14.90;;;18.10;73.30;;;;;;6148849;22;20135;-91
2023/05/12 10:14:42;;;;;;;19.13;14.95;;;18.20;73.00;;;;;;6192074;23;20115;-89
2023/05/12 10:17:18;;;;;;;18.55;15.13;;;18.20;72.80;;;;;;6178572;22;20009;-92
2023/05/12 10:19:45;;;;;;;16.63;13.73;;;18.30;72.50;;;;;;6165689;23;20016;-89
2023/05/12 10:22:16;;;;;;;17.00;15.05;;;18.30;72.30;;;;;;6163328;22;20035;-89
2023/05/12 10:24:43;;;;;;;20.47;15.13;;;18.40;71.50;;;;;;6192435;23;20024;-90
2023/05/12 10:27:10;;;;;;;15.15;13.55;;;18.40;71.50;;;;;;6158599;22;20308;-89
2023/05/12 10:29:37;;;;;;;21.50;15.48;;;18.50;71.60;;;;;;6189891;23;20050;-88
2023/05/12 10:32:05;;;;;;;18.98;15.88;;;18.40;71.30;;;;;;6189597;22;20016;-88
2023/05/12 10:34:36;;;;;;;17.73;15.65;;;18.40;70.70;;;;;;6192380;23;20012;-89
2023/05/12 10:37:09;;;;;;;18.40;16.40;;;18.30;71.00;;;;;;6188933;23;20022;-89
2023/05/12 10:39:37;;;;;;;22.08;18.35;;;18.40;71.10;;;;;;6167609;23;20024;-89
2023/05/12 10:42:07;;;;;;;22.77;19.90;;;18.50;71.40;;;;;;6185621;22;20117;-88
2023/05/12 10:44:34;;;;;;;26.65;22.45;;;18.60;71.50;;;;;;6240354;22;20490;-89
2023/05/12 10:47:01;;;;;;;25.33;20.85;;;18.70;72.00;;;;;;6163349;23;20012;-88
2023/05/12 10:49:38;;;;;;;24.42;21.00;;;18.80;71.80;;;;;;6164412;23;20052;-89
2023/05/12 10:52:04;;;;;;;28.20;23.52;;;18.80;71.70;;;;;;6178190;22;20743;-90
2023/05/12 10:54:39;;;;;;;27.33;23.75;;;18.80;71.60;;;;;;6241546;22;20581;-88
2023/05/12 10:57:15;;;;;;;28.65;22.92;;;18.80;71.30;;;;;;6188239;22;20147;-88
2023/05/12 11:04:10;;;;;;;;;;;;;;;;;;;;;
2023/05/12 11:07:26;;;;;;;;;;;;;;;;;;;;;
2023/05/12 11:10:11;;;;;;;23.05;20.58;;;19.10;71.10;;;;;;6139857;22;20012;-93
2023/05/12 11:13:32;;;;;;;18.50;16.27;;;19.10;71.20;;;;;;6179208;23;20143;-94
2023/05/12 11:17:24;;;;;;;19.73;16.25;;;19.20;70.40;;;;;;6084546;23;20783;-96
2023/05/12 11:20:32;;;;;;;19.98;17.85;;;19.20;69.10;;;;;;6126708;22;20031;-95
2023/05/12 11:23:28;;;;;;;18.98;15.50;;;19.30;70.00;;;;;;6180065;22;20027;-95
2023/05/12 11:26:09;;;;;;;;;;;;;;;;;;;;;
2023/05/12 11:28:53;;;;;;;13.85;12.45;;;19.40;69.60;;;;;;6139630;23;20036;-94
2023/05/12 11:31:24;;;;;;;20.02;16.13;;;19.50;69.30;;;;;;6155599;22;20543;-93
2023/05/12 11:34:06;;;;;;;17.33;13.95;;;19.50;69.00;;;;;;6201760;22;20023;-94
2023/05/12 11:37:23;;;;;;;;;;;;;;;;;;;;;
2023/05/12 11:40:40;;;;;;;21.45;16.10;;;19.50;67.70;;;;;;6227979;22;20246;-95
2023/05/12 11:44:45;;;;;;;12.13;10.82;;;19.50;67.60;;;;;;6176211;23;20024;-96
2023/05/12 11:47:20;;;;;;;16.52;11.95;;;19.60;66.00;;;;;;6119501;23;20025;-94
2023/05/12 11:50:01;;;;;;;16.80;13.00;;;19.70;68.20;;;;;;6164030;23;20844;-94
2023/05/12 11:52:39;;;;;;;13.75;11.48;;;19.90;67.70;;;;;;6164334;23;20084;-93
2023/05/12 11:55:35;;;;;;;12.77;10.88;;;20.00;67.80;;;;;;6142633;23;20017;-95
2023/05/12 11:58:17;;;;;;;16.42;14.27;;;20.10;67.60;;;;;;6132637;23;20032;-93
2023/05/12 12:01:30;;;;;;;;;;;20.20;68.20;;;;;;6144889;23;20012;-93
2023/05/12 12:04:05;;;;;;;12.95;9.50;;;20.30;67.00;;;;;;6129033;23;19986;-95
2023/05/12 12:14:25;;;;;;;;;;;;;;;;;;;;;
2023/05/12 12:18:17;;;;;;;;;;;;;;;;;;;;;
2023/05/12 12:22:13;;;;;;;10.05;8.77;;;20.30;64.00;;;;;;6249501;22;20027;-93
2023/05/12 12:25:33;;;;;;;11.73;8.95;;;20.40;65.30;;;;;;6212158;22;20024;-94
2023/05/12 12:31:42;;;;;;;10.77;9.38;;;20.50;65.20;;;;;;6058052;23;20100;-93
2023/05/12 12:35:08;;;;;;;;;;;;;;;;;;;;;
2023/05/12 12:37:40;;;;;;;13.77;11.00;;;20.60;64.90;;;;;;6098566;23;20017;-91
2023/05/12 12:41:15;;;;;;;17.83;11.18;;;20.70;66.40;;;;;;6081538;23;20745;-95
2023/05/12 12:55:08;;;;;;;12.80;10.07;;;20.90;66.00;;;;;;5917986;24;20088;-92
2023/05/12 12:57:37;;;;;;;11.95;9.63;;;21.00;66.40;;;;;;5920317;23;20020;-94
2023/05/12 13:04:27;;;;;;;13.57;10.15;;;21.00;66.30;;;;;;5997160;23;20137;-96
2023/05/12 13:07:37;;;;;;;;;;;;;;;;;;;;;
2023/05/12 13:10:56;;;;;;;17.63;14.88;;;21.10;65.70;;;;;;6022396;23;20075;-93
2023/05/12 13:47:55;;;;;;;15.07;13.48;;;20.00;69.20;;;;;;5950827;23;20047;-95
2023/05/12 13:51:22;;;;;;;17.58;13.18;;;20.10;68.30;;;;;;5948752;23;20018;-96
2023/05/12 13:58:23;;;;;;;18.65;12.10;;;20.00;67.20;;;;;;5930857;24;20104;-96
2023/05/12 14:01:20;;;;;;;;;;;;;;;;;;;;;
2023/05/12 14:04:01;;;;;;;13.02;9.43;;;20.00;66.70;;;;;;5856129;24;20036;-96
2023/05/12 14:07:30;;;;;;;;;;;;;;;;;;;;;
2023/05/12 14:47:30;;;;;;;7.78;5.32;;;19.10;66.50;;;;;;6163137;22;2059900;-92
2023/05/12 15:00:49;;;;;;;7.85;5.30;;;21.20;65.00;;;;;;6215298;23;20020;-93
2023/05/12 15:03:58;;;;;;;6.20;5.60;;;21.40;63.10;;;;;;6223584;23;20016;-95
2023/05/12 15:06:30;;;;;;;6.63;5.18;;;21.50;64.10;;;;;;6203076;23;20023;-91
2023/05/12 15:11:55;;;;;;;8.10;5.68;;;21.50;63.90;;;;;;6231351;23;20020;-91
2023/05/12 15:14:54;;;;;;;6.07;5.43;;;21.70;63.90;;;;;;6198767;23;20031;-96
2023/05/12 15:17:29;;;;;;;8.93;6.10;;;21.50;62.70;;;;;;6205980;22;20100;-91
2023/05/12 15:20:56;;;;;;;11.18;7.07;;;21.40;63.80;;;;;;6217101;23;20008;-96
2023/05/12 15:23:27;;;;;;;11.07;7.78;;;21.20;64.30;;;;;;6148014;23;20313;-92
2023/05/12 15:33:03;;;;;;;13.05;9.50;;;21.00;65.70;;;;;;6240609;23;20007;-91
2023/05/12 15:36:22;;;;;;;10.10;8.88;;;20.90;65.90;;;;;;6232395;23;20023;-95
2023/05/12 15:38:48;;;;;;;13.85;10.00;;;20.90;65.20;;;;;;6198581;23;20062;-88
2023/05/12 15:42:05;;;;;;;;;;;;;;;;;;;;;
2023/05/12 15:48:08;;;;;;;11.90;8.95;;;21.10;64.40;;;;;;6218463;23;20062;-96
2023/05/12 15:50:37;;;;;;;13.27;9.95;;;21.10;64.50;;;;;;6218976;23;20016;-90
2023/05/12 15:53:08;;;;;;;12.23;9.73;;;21.10;65.20;;;;;;6204531;23;20094;-92
2023/05/12 15:55:34;;;;;;;14.75;11.00;;;21.20;65.40;;;;;;6192167;23;20093;-90
2023/05/12 15:58:14;;;;;;;15.18;11.38;;;21.10;65.90;;;;;;6200998;22;20047;-93
2023/05/12 16:00:52;;;;;;;17.38;11.63;;;21.30;66.20;;;;;;6193219;23;20502;-92
2023/05/12 16:03:18;;;;;;;16.55;12.05;;;21.20;66.00;;;;;;6215557;23;20074;-95
2023/05/12 16:06:31;;;;;;;;;;;;;;;;;;;;;
2023/05/12 16:09:06;;;;;;;16.52;13.05;;;20.90;65.70;;;;;;6191357;23;20345;-92
2023/05/12 16:11:33;;;;;;;21.00;14.52;;;20.60;66.50;;;;;;6187124;23;20071;-89
2023/05/12 16:14:26;;;;;;;21.90;15.43;;;20.50;67.00;;;;;;6149788;23;20455;-92
2023/05/12 16:17:27;;;;;;;15.93;14.30;;;20.20;67.20;;;;;;6170929;23;20663;-91
2023/05/12 16:20:12;;;;;;;16.52;14.85;;;19.90;67.60;;;;;;6117294;23;20021;-91
2023/05/12 16:22:40;;;;;;;18.08;15.13;;;19.60;67.70;;;;;;6044896;23;20109;-88
2023/05/12 16:25:25;;;;;;;20.85;15.63;;;19.40;67.80;;;;;;6051153;23;20017;-96
2023/05/12 16:28:23;;;;;;;19.00;16.20;;;19.20;68.20;;;;;;6121468;23;20025;-94
2023/05/12 16:31:11;;;;;;;21.00;17.15;;;18.80;67.50;;;;;;6102988;23;20100;-96
2023/05/12 16:37:18;;;;;;;22.00;17.77;;;18.20;67.80;;;;;;6042638;23;20062;-92
2023/05/12 16:40:39;;;;;;;21.83;16.70;;;17.90;68.60;;;;;;6003347;23;20057;-95
2023/05/12 16:43:56;;;;;;;21.40;16.57;;;17.80;69.10;;;;;;6014358;23;20030;-92
2023/05/12 16:46:35;;;;;;;;;;;;;;;;;;;;;
2023/05/12 16:49:30;;;;;;;20.83;16.92;;;17.60;69.10;;;;;;6077604;23;20022;-96
2023/05/12 16:51:59;;;;;;;20.77;16.33;;;17.60;69.20;;;;;;6044861;23;20015;-93
2023/05/12 16:58:23;;;;;;;20.65;17.00;;;17.80;69.10;;;;;;6122494;23;20065;-91
2023/05/12 17:01:09;;;;;;;20.25;16.48;;;17.80;69.00;;;;;;6126774;23;20029;-94
2023/05/12 17:04:19;;;;;;;20.33;15.27;;;17.80;69.30;;;;;;6112222;23;20068;-94
2023/05/12 17:06:46;;;;;;;19.35;16.05;;;17.80;69.20;;;;;;6145937;23;20594;-90
2023/05/12 17:09:12;;;;;;;19.90;14.27;;;18.00;69.20;;;;;;6064454;23;20025;-88
2023/05/12 17:11:37;;;;;;;16.48;12.50;;;18.10;68.90;;;;;;6162317;23;20408;-90
2023/05/12 17:14:03;;;;;;;15.95;12.43;;;18.20;68.20;;;;;;6235777;23;20070;-89
2023/05/12 17:16:29;;;;;;;14.20;12.25;;;18.30;67.90;;;;;;6211340;23;20019;-87
2023/05/12 17:19:01;;;;;;;16.25;13.02;;;18.40;67.80;;;;;;6211705;23;20036;-94
2023/05/12 17:22:08;;;;;;;15.70;12.07;;;18.50;67.80;;;;;;6193225;23;20016;-91
2023/05/12 17:24:37;;;;;;;15.38;12.18;;;18.50;67.60;;;;;;6085764;22;20029;-91
2023/05/12 17:27:12;;;;;;;15.40;11.93;;;18.40;67.50;;;;;;6209366;22;20012;-87
2023/05/12 17:30:52;;;;;;;18.58;12.70;;;18.40;67.30;;;;;;6217565;23;20090;-89
2023/05/12 17:36:12;;;;;;;18.35;12.50;;;18.30;67.50;;;;;;6197029;23;20016;-94
2023/05/12 17:39:21;;;;;;;15.15;11.93;;;18.20;67.60;;;;;;6212052;23;20012;-92
2023/05/12 17:42:13;;;;;;;16.88;11.45;;;18.10;67.40;;;;;;6186680;23;20017;-94
2023/05/12 17:44:52;;;;;;;16.70;11.70;;;18.00;67.50;;;;;;6161140;23;20562;-96
2023/05/12 17:47:35;;;;;;;14.77;11.43;;;17.80;67.70;;;;;;6176965;23;20080;-91
2023/05/12 17:50:05;;;;;;;13.93;10.52;;;17.80;67.70;;;;;;6168852;23;20032;-92
2023/05/12 17:52:40;;;;;;;17.15;12.48;;;17.60;67.90;;;;;;6147150;23;20017;-91
2023/05/12 17:55:18;;;;;;;14.27;10.65;;;17.50;68.00;;;;;;6185916;23;20012;-92
2023/05/12 17:57:44;;;;;;;13.77;10.90;;;17.40;68.00;;;;;;6084896;23;20392;-88
2023/05/12 18:00:21;;;;;;;12.02;10.05;;;17.20;68.20;;;;;;6136794;23;20079;-90
2023/05/12 18:02:56;;;;;;;12.85;9.45;;;17.20;68.20;;;;;;6184343;23;20134;-92
2023/05/12 18:05:24;;;;;;;13.25;9.32;;;17.10;68.30;;;;;;6185730;23;20096;-91
2023/05/12 18:08:16;;;;;;;11.25;8.90;;;17.00;68.20;;;;;;6153184;23;20781;-92
2023/05/12 18:10:45;;;;;;;11.30;8.15;;;17.00;68.00;;;;;;6185021;23;20487;-90
2023/05/12 18:13:14;;;;;;;12.30;8.38;;;16.90;68.00;;;;;;6190650;23;20044;-89
2023/05/12 18:15:51;;;;;;;12.10;7.57;;;16.90;68.00;;;;;;6216405;23;20012;-92
2023/05/12 18:18:26;;;;;;;12.80;7.65;;;16.80;67.90;;;;;;6190321;23;20086;-90
2023/05/12 18:20:51;;;;;;;13.15;7.70;;;16.80;68.00;;;;;;6217345;23;20019;-89
2023/05/12 18:23:20;;;;;;;9.77;7.20;;;16.70;68.00;;;;;;6204173;23;20028;-91
2023/05/12 18:25:46;;;;;;;10.70;6.82;;;16.70;68.00;;;;;;6218048;23;20013;-90
2023/05/12 18:29:10;;;;;;;8.45;6.28;;;16.60;68.00;;;;;;6210661;23;20042;-96
2023/05/12 18:44:13;;;;;;;12.57;5.97;;;16.20;68.30;;;;;;6232442;22;20060;-91
2023/05/12 18:46:51;;;;;;;9.25;5.63;;;16.20;68.30;;;;;;6166035;23;20052;-92
2023/05/12 18:49:23;;;;;;;8.00;5.25;;;16.10;68.20;;;;;;6159132;23;20025;-92
2023/05/12 18:55:27;;;;;;;11.27;5.28;;;16.00;68.20;;;;;;6210719;23;20021;-90
2023/05/12 18:57:58;;;;;;;9.73;5.53;;;16.00;67.70;;;;;;6178578;23;20017;-91
2023/05/12 19:00:48;;;;;;;;;;;;;;;;;;;;;
2023/05/12 19:04:12;;;;;;;11.45;5.53;;;15.80;67.60;;;;;;6199160;23;20028;-93
2023/05/12 19:06:50;;;;;;;11.27;5.03;;;15.80;67.20;;;;;;6179280;23;20016;-92
2023/05/12 19:09:37;;;;;;;8.80;4.50;;;15.60;67.40;;;;;;6133980;23;20094;-91
2023/05/12 19:12:20;;;;;;;7.82;4.53;;;15.60;67.20;;;;;;6187009;23;20016;-92
2023/05/12 19:15:25;;;;;;;8.70;4.03;;;15.50;67.00;;;;;;6179898;23;20016;-92
2023/05/12 19:21:33;;;;;;;8.68;3.75;;;15.30;66.40;;;;;;6142274;23;20084;-92
2023/05/12 19:24:18;;;;;;;5.90;3.65;;;15.20;66.00;;;;;;6137656;23;20463;-90
2023/05/12 19:26:53;;;;;;;4.53;3.38;;;15.10;65.90;;;;;;6204211;23;20013;-92
2023/05/12 19:29:33;;;;;;;5.45;3.90;;;15.00;65.30;;;;;;6151678;23;20047;-90
2023/05/12 19:32:13;;;;;;;5.28;3.92;;;15.00;65.40;;;;;;6193618;23;20024;-93
2023/05/12 19:35:10;;;;;;;7.78;3.95;;;15.00;65.20;;;;;;6152245;23;20172;-93
2023/05/12 19:37:52;;;;;;;5.70;3.45;;;14.90;64.70;;;;;;6186727;23;20020;-91
2023/05/12 19:40:47;;;;;;;6.55;3.50;;;14.90;64.70;;;;;;6194107;23;20055;-90
2023/05/12 19:43:36;;;;;;;5.95;3.45;;;14.80;64.50;;;;;;6141515;23;20032;-91
2023/05/12 19:46:13;;;;;;;5.90;3.40;;;14.70;64.50;;;;;;6172572;23;20020;-93
2023/05/12 19:48:42;;;;;;;4.78;3.28;;;14.70;64.40;;;;;;6159655;23;20017;-93
2023/05/12 19:51:33;;;;;;;7.07;3.70;;;14.70;64.30;;;;;;6188882;23;20390;-92
2023/05/12 19:54:05;;;;;;;6.43;3.20;;;14.60;64.10;;;;;;6150333;23;20447;-90
2023/05/12 19:56:34;;;;;;;9.85;3.80;;;14.60;64.10;;;;;;6185002;23;20208;-92
2023/05/12 19:59:08;;;;;;;10.98;4.05;;;14.50;64.00;;;;;;6184812;23;20119;-93
2023/05/12 20:01:48;;;;;;;10.65;3.95;;;14.50;63.80;;;;;;6140335;23;20036;-92
2023/05/12 20:04:26;;;;;;;5.05;3.50;;;14.50;63.60;;;;;;6187068;23;20017;-94
2023/05/12 20:07:10;;;;;;;10.30;4.00;;;14.50;63.70;;;;;;6182530;23;20126;-93
2023/05/12 20:09:51;;;;;;;6.60;4.13;;;14.40;63.80;;;;;;6132336;23;20451;-96
2023/05/12 20:12:25;;;;;;;7.38;4.25;;;14.40;63.70;;;;;;6174568;23;20461;-90
2023/05/12 20:15:05;;;;;;;8.57;4.00;;;14.40;63.60;;;;;;6164314;23;20083;-90
2023/05/12 20:18:16;;;;;;;7.97;3.60;;;14.40;63.70;;;;;;6145722;23;20024;-94
2023/05/12 20:21:15;;;;;;;4.40;4.00;;;14.30;63.50;;;;;;6087830;23;20566;-94
2023/05/12 20:23:52;;;;;;;10.15;4.72;;;14.30;63.70;;;;;;6123130;23;20010;-91
2023/05/12 20:57:09;;;;;;;9.63;5.68;;;13.50;65.70;;;;;;6223847;22;20047;-92
2023/05/12 20:59:41;;;;;;;10.93;5.90;;;13.50;66.00;;;;;;6145980;23;20607;-90
2023/05/12 21:02:19;;;;;;;12.63;5.68;;;13.50;66.20;;;;;;6174941;22;20038;-91
2023/05/12 21:04:51;;;;;;;10.82;5.72;;;13.40;66.40;;;;;;6185206;23;20063;-92
2023/05/12 21:07:34;;;;;;;8.20;5.68;;;13.40;66.50;;;;;;6170048;23;20019;-91
2023/05/12 21:11:03;;;;;;;8.80;5.68;;;13.30;66.60;;;;;;6194368;23;20023;-93
